sensor_id;sensor_type;location;lat;lon;timestamp;temperature;humidity
16732;DHT22;8484;50.904;9.192;2023-09-19T00:00:25;16.40;99.90
16732;DHT22;8484;50.904;9.192;2023-09-19T00:03:04;16.50;99.90
16732;DHT22;8484;50.904;9.192;2023-09-19T00:05:34;16.50;99.90
16732;DHT22;8484;50.904;9.192;2023-09-19T00:08:02;16.60;99.90
16732;DHT22;8484;50.904;9.192;2023-09-19T00:10:30;16.60;99.90
16732;DHT22;8484;50.904;9.192;2023-09-19T00:13:01;16.70;99.90
16732;DHT22;8484;50.904;9.192;2023-09-19T00:15:36;16.70;99.90
16732;DHT22;8484;50.904;9.192;2023-09-19T00:18:05;16.70;99.90
16732;DHT22;8484;50.904;9.192;2023-09-19T00:20:32;16.80;99.90
16732;DHT22;8484;50.904;9.192;2023-09-19T00:23:00;16.80;99.90
16732;DHT22;8484;50.904;9.192;2023-09-19T00:25:34;16.80;99.90
16732;DHT22;8484;50.904;9.192;2023-09-19T00:28:02;16.80;99.90
16732;DHT22;8484;50.904;9.192;2023-09-19T00:30:30;16.80;99.90
16732;DHT22;8484;50.904;9.192;2023-09-19T00:32:57;16.80;99.90
16732;DHT22;8484;50.904;9.192;2023-09-19T00:35:25;16.80;99.90
16732;DHT22;8484;50.904;9.192;2023-09-19T00:37:53;16.80;99.90
16732;DHT22;8484;50.904;9.192;2023-09-19T00:40:21;16.80;99.90
16732;DHT22;8484;50.904;9.192;2023-09-19T00:42:49;16.70;99.90
16732;DHT22;8484;50.904;9.192;2023-09-19T00:45:17;16.80;99.90
16732;DHT22;8484;50.904;9.192;2023-09-19T00:47:49;16.80;99.90
16732;DHT22;8484;50.904;9.192;2023-09-19T00:50:17;16.90;99.90
16732;DHT22;8484;50.904;9.192;2023-09-19T00:52:46;16.80;99.90
16732;DHT22;8484;50.904;9.192;2023-09-19T00:55:16;16.70;99.90
16732;DHT22;8484;50.904;9.192;2023-09-19T00:57:45;16.70;99.90
16732;DHT22;8484;50.904;9.192;2023-09-19T01:00:13;16.70;99.90
16732;DHT22;8484;50.904;9.192;2023-09-19T01:02:42;16.80;99.90
16732;DHT22;8484;50.904;9.192;2023-09-19T01:05:09;16.70;99.90
16732;DHT22;8484;50.904;9.192;2023-09-19T01:07:38;16.80;99.90
16732;DHT22;8484;50.904;9.192;2023-09-19T01:10:09;16.70;99.90
16732;DHT22;8484;50.904;9.192;2023-09-19T01:12:48;16.70;99.90
16732;DHT22;8484;50.904;9.192;2023-09-19T01:15:24;16.60;99.90
16732;DHT22;8484;50.904;9.192;2023-09-19T01:18:01;16.60;99.90
16732;DHT22;8484;50.904;9.192;2023-09-19T01:20:39;16.60;99.90
16732;DHT22;8484;50.904;9.192;2023-09-19T01:23:13;16.60;99.90
16732;DHT22;8484;50.904;9.192;2023-09-19T01:26:22;16.50;99.90
16732;DHT22;8484;50.904;9.192;2023-09-19T01:28:53;16.50;99.90
16732;DHT22;8484;50.904;9.192;2023-09-19T01:31:23;16.50;99.90
16732;DHT22;8484;50.904;9.192;2023-09-19T01:33:59;16.60;99.90
16732;DHT22;8484;50.904;9.192;2023-09-19T01:36:27;16.50;99.90
16732;DHT22;8484;50.904;9.192;2023-09-19T01:38:57;16.50;99.90
16732;DHT22;8484;50.904;9.192;2023-09-19T01:41:37;16.50;99.90
16732;DHT22;8484;50.904;9.192;2023-09-19T01:44:07;16.50;99.90
16732;DHT22;8484;50.904;9.192;2023-09-19T01:46:39;16.50;99.90
16732;DHT22;8484;50.904;9.192;2023-09-19T01:49:18;16.50;99.90
16732;DHT22;8484;50.904;9.192;2023-09-19T01:51:52;16.40;99.90
16732;DHT22;8484;50.904;9.192;2023-09-19T01:54:27;16.40;99.90
16732;DHT22;8484;50.904;9.192;2023-09-19T01:57:01;16.20;99.90
16732;DHT22;8484;50.904;9.192;2023-09-19T01:59:35;16.20;99.90
16732;DHT22;8484;50.904;9.192;2023-09-19T02:02:06;16.00;99.90
16732;DHT22;8484;50.904;9.192;2023-09-19T02:04:34;16.00;99.90
16732;DHT22;8484;50.904;9.192;2023-09-19T02:07:02;15.90;99.90
16732;DHT22;8484;50.904;9.192;2023-09-19T02:09:31;15.80;99.90
16732;DHT22;8484;50.904;9.192;2023-09-19T02:11:58;15.80;99.90
16732;DHT22;8484;50.904;9.192;2023-09-19T02:14:26;15.70;99.90
16732;DHT22;8484;50.904;9.192;2023-09-19T02:16:55;15.70;99.90
16732;DHT22;8484;50.904;9.192;2023-09-19T02:19:23;15.70;99.90
16732;DHT22;8484;50.904;9.192;2023-09-19T02:21:50;15.60;99.90
16732;DHT22;8484;50.904;9.192;2023-09-19T02:24:18;15.60;99.90
16732;DHT22;8484;50.904;9.192;2023-09-19T02:26:45;15.50;99.90
16732;DHT22;8484;50.904;9.192;2023-09-19T02:29:12;15.40;99.90
16732;DHT22;8484;50.904;9.192;2023-09-19T02:31:39;15.50;99.90
16732;DHT22;8484;50.904;9.192;2023-09-19T02:34:09;15.40;99.90
16732;DHT22;8484;50.904;9.192;2023-09-19T02:36:38;15.30;99.90
16732;DHT22;8484;50.904;9.192;2023-09-19T02:39:05;15.20;99.90
16732;DHT22;8484;50.904;9.192;2023-09-19T02:41:34;15.10;99.90
16732;DHT22;8484;50.904;9.192;2023-09-19T02:44:01;15.10;99.90
16732;DHT22;8484;50.904;9.192;2023-09-19T02:46:28;15.10;99.90
16732;DHT22;8484;50.904;9.192;2023-09-19T02:48:55;15.00;99.90
16732;DHT22;8484;50.904;9.192;2023-09-19T02:51:22;14.80;99.90
16732;DHT22;8484;50.904;9.192;2023-09-19T02:53:51;14.90;99.90
16732;DHT22;8484;50.904;9.192;2023-09-19T02:56:20;14.80;99.90
16732;DHT22;8484;50.904;9.192;2023-09-19T02:58:48;14.80;99.90
16732;DHT22;8484;50.904;9.192;2023-09-19T03:01:15;14.90;99.90
16732;DHT22;8484;50.904;9.192;2023-09-19T03:03:43;14.90;99.90
16732;DHT22;8484;50.904;9.192;2023-09-19T03:06:11;15.00;99.90
16732;DHT22;8484;50.904;9.192;2023-09-19T03:08:39;15.00;99.90
16732;DHT22;8484;50.904;9.192;2023-09-19T03:11:09;15.00;99.90
16732;DHT22;8484;50.904;9.192;2023-09-19T03:13:37;15.10;99.90
16732;DHT22;8484;50.904;9.192;2023-09-19T03:16:05;15.10;99.90
16732;DHT22;8484;50.904;9.192;2023-09-19T03:18:34;15.10;99.90
16732;DHT22;8484;50.904;9.192;2023-09-19T03:21:00;15.20;99.90
16732;DHT22;8484;50.904;9.192;2023-09-19T03:23:28;15.10;99.90
16732;DHT22;8484;50.904;9.192;2023-09-19T03:25:55;15.00;99.90
16732;DHT22;8484;50.904;9.192;2023-09-19T03:28:25;15.10;99.90
16732;DHT22;8484;50.904;9.192;2023-09-19T03:31:00;15.00;99.90
16732;DHT22;8484;50.904;9.192;2023-09-19T03:33:27;15.10;99.90
16732;DHT22;8484;50.904;9.192;2023-09-19T03:35:54;15.00;99.90
16732;DHT22;8484;50.904;9.192;2023-09-19T03:38:23;14.90;99.90
16732;DHT22;8484;50.904;9.192;2023-09-19T03:40:50;14.90;99.90
16732;DHT22;8484;50.904;9.192;2023-09-19T03:43:17;14.90;99.90
16732;DHT22;8484;50.904;9.192;2023-09-19T03:45:46;14.90;99.90
16732;DHT22;8484;50.904;9.192;2023-09-19T03:48:14;14.90;99.90
16732;DHT22;8484;50.904;9.192;2023-09-19T03:50:41;14.90;99.90
16732;DHT22;8484;50.904;9.192;2023-09-19T03:53:09;14.90;99.90
16732;DHT22;8484;50.904;9.192;2023-09-19T03:55:36;14.90;99.90
16732;DHT22;8484;50.904;9.192;2023-09-19T03:58:04;14.90;99.90
16732;DHT22;8484;50.904;9.192;2023-09-19T04:00:31;14.90;99.90
16732;DHT22;8484;50.904;9.192;2023-09-19T04:03:01;14.90;99.90
16732;DHT22;8484;50.904;9.192;2023-09-19T04:05:31;14.90;99.90
16732;DHT22;8484;50.904;9.192;2023-09-19T04:07:58;14.90;99.90
16732;DHT22;8484;50.904;9.192;2023-09-19T04:10:25;14.90;99.90
16732;DHT22;8484;50.904;9.192;2023-09-19T04:12:54;15.00;99.90
16732;DHT22;8484;50.904;9.192;2023-09-19T04:15:21;15.10;99.90
16732;DHT22;8484;50.904;9.192;2023-09-19T04:17:55;15.10;99.90
16732;DHT22;8484;50.904;9.192;2023-09-19T04:20:23;15.10;99.90
16732;DHT22;8484;50.904;9.192;2023-09-19T04:22:50;15.10;99.90
16732;DHT22;8484;50.904;9.192;2023-09-19T04:25:17;15.20;99.90
16732;DHT22;8484;50.904;9.192;2023-09-19T04:27:44;15.20;99.90
16732;DHT22;8484;50.904;9.192;2023-09-19T04:30:12;15.30;99.90
16732;DHT22;8484;50.904;9.192;2023-09-19T04:32:40;15.30;99.90
16732;DHT22;8484;50.904;9.192;2023-09-19T04:35:08;15.30;99.90
16732;DHT22;8484;50.904;9.192;2023-09-19T04:37:38;15.30;99.90
16732;DHT22;8484;50.904;9.192;2023-09-19T04:40:07;15.30;99.90
16732;DHT22;8484;50.904;9.192;2023-09-19T04:42:39;15.40;99.90
16732;DHT22;8484;50.904;9.192;2023-09-19T04:45:06;15.40;99.90
16732;DHT22;8484;50.904;9.192;2023-09-19T04:47:35;15.40;99.90
16732;DHT22;8484;50.904;9.192;2023-09-19T04:50:06;15.40;99.90
16732;DHT22;8484;50.904;9.192;2023-09-19T04:52:33;15.40;99.90
16732;DHT22;8484;50.904;9.192;2023-09-19T04:55:01;15.30;99.90
16732;DHT22;8484;50.904;9.192;2023-09-19T04:57:30;15.30;99.90
16732;DHT22;8484;50.904;9.192;2023-09-19T04:59:57;15.40;99.90
16732;DHT22;8484;50.904;9.192;2023-09-19T05:02:24;15.40;99.90
16732;DHT22;8484;50.904;9.192;2023-09-19T05:04:51;15.30;99.90
16732;DHT22;8484;50.904;9.192;2023-09-19T05:07:19;15.40;99.90
16732;DHT22;8484;50.904;9.192;2023-09-19T05:09:47;15.30;99.90
16732;DHT22;8484;50.904;9.192;2023-09-19T05:12:15;15.40;99.90
16732;DHT22;8484;50.904;9.192;2023-09-19T05:14:44;15.20;99.90
16732;DHT22;8484;50.904;9.192;2023-09-19T05:17:10;15.20;99.90
16732;DHT22;8484;50.904;9.192;2023-09-19T05:19:37;15.20;99.90
16732;DHT22;8484;50.904;9.192;2023-09-19T05:22:04;15.10;99.90
16732;DHT22;8484;50.904;9.192;2023-09-19T05:24:32;15.10;99.90
16732;DHT22;8484;50.904;9.192;2023-09-19T05:26:59;15.00;99.90
16732;DHT22;8484;50.904;9.192;2023-09-19T05:29:27;15.00;99.90
16732;DHT22;8484;50.904;9.192;2023-09-19T05:31:54;15.00;99.90
16732;DHT22;8484;50.904;9.192;2023-09-19T05:34:21;15.00;99.90
16732;DHT22;8484;50.904;9.192;2023-09-19T05:36:48;14.90;99.90
16732;DHT22;8484;50.904;9.192;2023-09-19T05:39:15;14.90;99.90
16732;DHT22;8484;50.904;9.192;2023-09-19T05:41:42;14.90;99.90
16732;DHT22;8484;50.904;9.192;2023-09-19T05:44:09;14.90;99.90
16732;DHT22;8484;50.904;9.192;2023-09-19T05:46:37;14.80;99.90
16732;DHT22;8484;50.904;9.192;2023-09-19T05:49:04;14.90;99.90
16732;DHT22;8484;50.904;9.192;2023-09-19T05:51:31;14.90;99.90
16732;DHT22;8484;50.904;9.192;2023-09-19T05:53:58;14.80;99.90
16732;DHT22;8484;50.904;9.192;2023-09-19T05:56:24;14.80;99.90
16732;DHT22;8484;50.904;9.192;2023-09-19T05:58:52;14.70;99.90
16732;DHT22;8484;50.904;9.192;2023-09-19T06:01:19;14.70;99.90
16732;DHT22;8484;50.904;9.192;2023-09-19T06:03:48;14.80;99.90
16732;DHT22;8484;50.904;9.192;2023-09-19T06:06:14;14.80;99.90
16732;DHT22;8484;50.904;9.192;2023-09-19T06:08:42;14.80;99.90
16732;DHT22;8484;50.904;9.192;2023-09-19T06:11:10;14.70;99.90
16732;DHT22;8484;50.904;9.192;2023-09-19T06:13:37;14.70;99.90
16732;DHT22;8484;50.904;9.192;2023-09-19T06:16:06;14.60;99.90
16732;DHT22;8484;50.904;9.192;2023-09-19T06:18:35;14.80;99.90
16732;DHT22;8484;50.904;9.192;2023-09-19T06:21:03;14.80;99.90
16732;DHT22;8484;50.904;9.192;2023-09-19T06:23:33;14.80;99.90
16732;DHT22;8484;50.904;9.192;2023-09-19T06:26:00;14.80;99.90
16732;DHT22;8484;50.904;9.192;2023-09-19T06:28:27;14.80;99.90
16732;DHT22;8484;50.904;9.192;2023-09-19T06:30:54;14.90;99.90
16732;DHT22;8484;50.904;9.192;2023-09-19T06:33:22;14.90;99.90
16732;DHT22;8484;50.904;9.192;2023-09-19T06:35:49;14.80;99.90
16732;DHT22;8484;50.904;9.192;2023-09-19T06:38:20;15.00;99.90
16732;DHT22;8484;50.904;9.192;2023-09-19T06:40:47;15.30;99.90
16732;DHT22;8484;50.904;9.192;2023-09-19T06:43:14;15.20;99.90
16732;DHT22;8484;50.904;9.192;2023-09-19T06:45:41;15.30;99.90
16732;DHT22;8484;50.904;9.192;2023-09-19T06:48:08;15.50;99.90
16732;DHT22;8484;50.904;9.192;2023-09-19T06:50:35;15.50;99.90
16732;DHT22;8484;50.904;9.192;2023-09-19T06:53:04;15.80;99.90
16732;DHT22;8484;50.904;9.192;2023-09-19T06:55:32;15.60;99.90
16732;DHT22;8484;50.904;9.192;2023-09-19T06:57:59;15.80;99.90
16732;DHT22;8484;50.904;9.192;2023-09-19T07:00:26;15.90;99.90
16732;DHT22;8484;50.904;9.192;2023-09-19T07:02:57;15.70;99.90
16732;DHT22;8484;50.904;9.192;2023-09-19T07:05:27;15.80;99.90
16732;DHT22;8484;50.904;9.192;2023-09-19T07:07:54;15.90;99.90
16732;DHT22;8484;50.904;9.192;2023-09-19T07:10:22;15.80;99.90
16732;DHT22;8484;50.904;9.192;2023-09-19T07:13:04;15.90;99.90
16732;DHT22;8484;50.904;9.192;2023-09-19T07:15:32;15.70;99.90
16732;DHT22;8484;50.904;9.192;2023-09-19T07:18:04;15.90;99.90
16732;DHT22;8484;50.904;9.192;2023-09-19T07:20:32;16.00;99.90
16732;DHT22;8484;50.904;9.192;2023-09-19T07:23:00;15.90;99.90
16732;DHT22;8484;50.904;9.192;2023-09-19T07:25:27;16.00;99.90
16732;DHT22;8484;50.904;9.192;2023-09-19T07:27:55;16.10;99.90
16732;DHT22;8484;50.904;9.192;2023-09-19T07:30:23;15.90;99.90
16732;DHT22;8484;50.904;9.192;2023-09-19T07:32:51;15.80;99.90
16732;DHT22;8484;50.904;9.192;2023-09-19T07:35:18;15.70;99.90
16732;DHT22;8484;50.904;9.192;2023-09-19T07:37:46;15.80;99.90
16732;DHT22;8484;50.904;9.192;2023-09-19T07:40:15;15.80;99.90
16732;DHT22;8484;50.904;9.192;2023-09-19T07:42:42;15.80;99.90
16732;DHT22;8484;50.904;9.192;2023-09-19T07:45:10;15.70;99.90
16732;DHT22;8484;50.904;9.192;2023-09-19T07:47:44;15.80;99.90
16732;DHT22;8484;50.904;9.192;2023-09-19T07:50:11;15.80;99.90
16732;DHT22;8484;50.904;9.192;2023-09-19T07:52:38;15.90;99.90
16732;DHT22;8484;50.904;9.192;2023-09-19T07:55:06;15.90;99.90
16732;DHT22;8484;50.904;9.192;2023-09-19T07:57:37;15.90;99.90
16732;DHT22;8484;50.904;9.192;2023-09-19T08:00:04;15.90;99.90
16732;DHT22;8484;50.904;9.192;2023-09-19T08:02:34;16.20;99.90
16732;DHT22;8484;50.904;9.192;2023-09-19T08:05:05;16.50;99.90
16732;DHT22;8484;50.904;9.192;2023-09-19T08:07:33;16.40;99.90
16732;DHT22;8484;50.904;9.192;2023-09-19T08:10:02;16.20;99.90
16732;DHT22;8484;50.904;9.192;2023-09-19T08:12:29;16.20;99.90
16732;DHT22;8484;50.904;9.192;2023-09-19T08:14:56;16.50;99.90
16732;DHT22;8484;50.904;9.192;2023-09-19T08:17:23;16.60;99.90
16732;DHT22;8484;50.904;9.192;2023-09-19T08:19:50;16.50;99.90
16732;DHT22;8484;50.904;9.192;2023-09-19T08:22:23;16.70;99.90
16732;DHT22;8484;50.904;9.192;2023-09-19T08:24:50;17.00;99.90
16732;DHT22;8484;50.904;9.192;2023-09-19T08:27:17;17.10;99.90
16732;DHT22;8484;50.904;9.192;2023-09-19T08:29:45;17.10;99.90
16732;DHT22;8484;50.904;9.192;2023-09-19T08:32:12;17.30;99.90
16732;DHT22;8484;50.904;9.192;2023-09-19T08:34:40;17.30;99.90
16732;DHT22;8484;50.904;9.192;2023-09-19T08:37:07;17.60;99.90
16732;DHT22;8484;50.904;9.192;2023-09-19T08:39:37;17.40;99.90
16732;DHT22;8484;50.904;9.192;2023-09-19T08:42:04;17.70;99.90
16732;DHT22;8484;50.904;9.192;2023-09-19T08:44:36;17.40;99.90
16732;DHT22;8484;50.904;9.192;2023-09-19T08:47:11;17.60;99.90
16732;DHT22;8484;50.904;9.192;2023-09-19T08:49:45;17.80;99.90
16732;DHT22;8484;50.904;9.192;2023-09-19T08:52:23;18.10;99.90
16732;DHT22;8484;50.904;9.192;2023-09-19T08:54:56;17.60;99.90
16732;DHT22;8484;50.904;9.192;2023-09-19T08:57:28;17.80;99.90
16732;DHT22;8484;50.904;9.192;2023-09-19T08:59:57;17.50;99.90
16732;DHT22;8484;50.904;9.192;2023-09-19T09:02:26;17.90;99.90
16732;DHT22;8484;50.904;9.192;2023-09-19T09:04:55;17.80;99.90
16732;DHT22;8484;50.904;9.192;2023-09-19T09:07:24;18.00;99.90
16732;DHT22;8484;50.904;9.192;2023-09-19T09:09:54;18.10;99.90
16732;DHT22;8484;50.904;9.192;2023-09-19T09:12:21;17.90;99.90
16732;DHT22;8484;50.904;9.192;2023-09-19T09:14:48;18.40;99.90
16732;DHT22;8484;50.904;9.192;2023-09-19T09:17:15;18.10;99.90
16732;DHT22;8484;50.904;9.192;2023-09-19T09:19:46;18.30;99.90
16732;DHT22;8484;50.904;9.192;2023-09-19T09:22:13;18.90;99.90
16732;DHT22;8484;50.904;9.192;2023-09-19T09:24:51;18.80;99.90
16732;DHT22;8484;50.904;9.192;2023-09-19T09:27:21;19.00;99.90
16732;DHT22;8484;50.904;9.192;2023-09-19T09:29:50;18.40;99.90
16732;DHT22;8484;50.904;9.192;2023-09-19T09:32:22;18.40;99.90
16732;DHT22;8484;50.904;9.192;2023-09-19T09:34:52;18.80;99.90
16732;DHT22;8484;50.904;9.192;2023-09-19T09:37:20;18.50;99.90
16732;DHT22;8484;50.904;9.192;2023-09-19T09:39:52;18.40;99.90
16732;DHT22;8484;50.904;9.192;2023-09-19T09:42:41;18.80;99.90
16732;DHT22;8484;50.904;9.192;2023-09-19T09:45:16;18.30;99.90
16732;DHT22;8484;50.904;9.192;2023-09-19T09:47:46;18.50;99.90
16732;DHT22;8484;50.904;9.192;2023-09-19T09:50:30;18.60;99.90
16732;DHT22;8484;50.904;9.192;2023-09-19T09:53:23;18.00;99.90
16732;DHT22;8484;50.904;9.192;2023-09-19T09:56:03;18.00;99.90
16732;DHT22;8484;50.904;9.192;2023-09-19T09:58:34;18.70;99.90
16732;DHT22;8484;50.904;9.192;2023-09-19T10:01:03;18.30;99.90
16732;DHT22;8484;50.904;9.192;2023-09-19T10:03:35;18.50;99.90
16732;DHT22;8484;50.904;9.192;2023-09-19T10:06:15;18.20;99.90
16732;DHT22;8484;50.904;9.192;2023-09-19T10:09:03;18.70;99.90
16732;DHT22;8484;50.904;9.192;2023-09-19T10:11:41;19.00;99.90
16732;DHT22;8484;50.904;9.192;2023-09-19T10:14:12;18.30;99.90
16732;DHT22;8484;50.904;9.192;2023-09-19T10:16:46;19.10;99.90
16732;DHT22;8484;50.904;9.192;2023-09-19T10:19:16;18.80;99.90
16732;DHT22;8484;50.904;9.192;2023-09-19T10:21:48;18.20;99.90
16732;DHT22;8484;50.904;9.192;2023-09-19T10:24:17;18.20;99.90
16732;DHT22;8484;50.904;9.192;2023-09-19T10:26:45;17.80;99.90
16732;DHT22;8484;50.904;9.192;2023-09-19T10:29:18;17.90;99.90
16732;DHT22;8484;50.904;9.192;2023-09-19T10:31:47;18.10;99.90
16732;DHT22;8484;50.904;9.192;2023-09-19T10:34:17;18.00;99.90
16732;DHT22;8484;50.904;9.192;2023-09-19T10:36:45;17.90;99.90
16732;DHT22;8484;50.904;9.192;2023-09-19T10:39:15;18.10;99.90
16732;DHT22;8484;50.904;9.192;2023-09-19T10:41:50;18.10;99.90
16732;DHT22;8484;50.904;9.192;2023-09-19T10:44:23;18.40;99.90
16732;DHT22;8484;50.904;9.192;2023-09-19T10:46:51;18.60;99.90
16732;DHT22;8484;50.904;9.192;2023-09-19T10:49:19;18.90;99.90
16732;DHT22;8484;50.904;9.192;2023-09-19T10:51:48;18.90;99.90
16732;DHT22;8484;50.904;9.192;2023-09-19T10:54:18;18.40;99.90
16732;DHT22;8484;50.904;9.192;2023-09-19T10:56:50;18.10;99.90
16732;DHT22;8484;50.904;9.192;2023-09-19T10:59:19;18.60;99.90
16732;DHT22;8484;50.904;9.192;2023-09-19T11:01:49;18.90;99.90
16732;DHT22;8484;50.904;9.192;2023-09-19T11:04:24;19.30;99.90
16732;DHT22;8484;50.904;9.192;2023-09-19T11:07:03;19.50;99.90
16732;DHT22;8484;50.904;9.192;2023-09-19T11:09:48;19.90;99.90
16732;DHT22;8484;50.904;9.192;2023-09-19T11:12:50;20.00;99.90
16732;DHT22;8484;50.904;9.192;2023-09-19T11:18:55;19.90;99.90
16732;DHT22;8484;50.904;9.192;2023-09-19T11:21:53;20.30;99.90
16732;DHT22;8484;50.904;9.192;2023-09-19T11:24:31;20.20;99.90
16732;DHT22;8484;50.904;9.192;2023-09-19T11:27:16;20.40;99.90
16732;DHT22;8484;50.904;9.192;2023-09-19T11:29:44;20.90;99.90
16732;DHT22;8484;50.904;9.192;2023-09-19T11:32:11;21.50;99.20
16732;DHT22;8484;50.904;9.192;2023-09-19T11:34:48;21.20;98.40
16732;DHT22;8484;50.904;9.192;2023-09-19T11:40:46;19.90;99.90
16732;DHT22;8484;50.904;9.192;2023-09-19T11:43:33;20.20;99.90
16732;DHT22;8484;50.904;9.192;2023-09-19T11:46:08;19.70;99.90
16732;DHT22;8484;50.904;9.192;2023-09-19T11:48:39;19.70;99.90
16732;DHT22;8484;50.904;9.192;2023-09-19T11:51:16;19.60;99.90
16732;DHT22;8484;50.904;9.192;2023-09-19T11:53:48;19.70;99.90
16732;DHT22;8484;50.904;9.192;2023-09-19T11:56:17;19.40;99.90
16732;DHT22;8484;50.904;9.192;2023-09-19T11:58:45;19.30;99.90
16732;DHT22;8484;50.904;9.192;2023-09-19T12:01:15;18.90;99.90
16732;DHT22;8484;50.904;9.192;2023-09-19T12:03:52;18.80;99.90
16732;DHT22;8484;50.904;9.192;2023-09-19T12:06:22;19.40;99.90
16732;DHT22;8484;50.904;9.192;2023-09-19T12:08:49;20.30;99.90
16732;DHT22;8484;50.904;9.192;2023-09-19T12:11:17;20.30;99.10
16732;DHT22;8484;50.904;9.192;2023-09-19T12:13:47;20.10;99.10
16732;DHT22;8484;50.904;9.192;2023-09-19T12:16:15;19.50;99.90
16732;DHT22;8484;50.904;9.192;2023-09-19T12:18:43;19.20;99.90
16732;DHT22;8484;50.904;9.192;2023-09-19T12:21:24;19.30;99.90
16732;DHT22;8484;50.904;9.192;2023-09-19T12:24:11;19.60;99.90
16732;DHT22;8484;50.904;9.192;2023-09-19T12:26:40;19.30;99.90
16732;DHT22;8484;50.904;9.192;2023-09-19T12:29:16;19.10;99.90
16732;DHT22;8484;50.904;9.192;2023-09-19T12:31:52;19.20;99.90
16732;DHT22;8484;50.904;9.192;2023-09-19T12:34:23;19.80;99.30
16732;DHT22;8484;50.904;9.192;2023-09-19T12:37:10;19.50;98.80
16732;DHT22;8484;50.904;9.192;2023-09-19T12:39:46;19.20;99.80
16732;DHT22;8484;50.904;9.192;2023-09-19T12:42:17;19.20;99.50
16732;DHT22;8484;50.904;9.192;2023-09-19T12:44:45;19.30;99.90
16732;DHT22;8484;50.904;9.192;2023-09-19T12:47:14;19.90;99.40
16732;DHT22;8484;50.904;9.192;2023-09-19T12:50:10;20.70;98.40
16732;DHT22;8484;50.904;9.192;2023-09-19T12:52:45;21.50;98.80
16732;DHT22;8484;50.904;9.192;2023-09-19T12:55:24;21.50;97.60
16732;DHT22;8484;50.904;9.192;2023-09-19T12:57:59;20.90;97.10
16732;DHT22;8484;50.904;9.192;2023-09-19T13:00:34;19.70;97.50
16732;DHT22;8484;50.904;9.192;2023-09-19T13:03:16;20.20;97.90
16732;DHT22;8484;50.904;9.192;2023-09-19T13:05:49;20.50;97.00
16732;DHT22;8484;50.904;9.192;2023-09-19T13:08:23;20.50;96.60
16732;DHT22;8484;50.904;9.192;2023-09-19T13:11:06;20.50;96.70
16732;DHT22;8484;50.904;9.192;2023-09-19T13:13:36;20.80;96.80
16732;DHT22;8484;50.904;9.192;2023-09-19T13:16:03;20.40;96.40
16732;DHT22;8484;50.904;9.192;2023-09-19T13:18:41;20.20;96.90
16732;DHT22;8484;50.904;9.192;2023-09-19T13:21:10;19.70;96.90
16732;DHT22;8484;50.904;9.192;2023-09-19T13:23:42;19.50;97.60
16732;DHT22;8484;50.904;9.192;2023-09-19T13:26:10;19.20;97.60
16732;DHT22;8484;50.904;9.192;2023-09-19T13:28:38;19.70;97.20
16732;DHT22;8484;50.904;9.192;2023-09-19T13:31:05;19.80;97.20
16732;DHT22;8484;50.904;9.192;2023-09-19T13:33:34;20.50;97.10
16732;DHT22;8484;50.904;9.192;2023-09-19T13:36:01;20.50;96.80
16732;DHT22;8484;50.904;9.192;2023-09-19T13:38:28;20.20;96.70
16732;DHT22;8484;50.904;9.192;2023-09-19T13:40:56;19.90;96.60
16732;DHT22;8484;50.904;9.192;2023-09-19T13:43:24;20.30;96.90
16732;DHT22;8484;50.904;9.192;2023-09-19T13:45:51;20.70;95.00
16732;DHT22;8484;50.904;9.192;2023-09-19T13:48:18;21.10;96.20
16732;DHT22;8484;50.904;9.192;2023-09-19T13:50:48;21.40;95.00
16732;DHT22;8484;50.904;9.192;2023-09-19T13:53:15;21.70;95.60
16732;DHT22;8484;50.904;9.192;2023-09-19T13:55:43;21.30;95.70
16732;DHT22;8484;50.904;9.192;2023-09-19T13:58:11;21.20;94.80
16732;DHT22;8484;50.904;9.192;2023-09-19T14:00:38;21.10;94.80
16732;DHT22;8484;50.904;9.192;2023-09-19T14:03:05;20.30;94.60
16732;DHT22;8484;50.904;9.192;2023-09-19T14:05:32;20.50;94.90
16732;DHT22;8484;50.904;9.192;2023-09-19T14:07:59;20.90;94.70
16732;DHT22;8484;50.904;9.192;2023-09-19T14:10:26;20.70;93.10
16732;DHT22;8484;50.904;9.192;2023-09-19T14:12:55;20.40;93.20
16732;DHT22;8484;50.904;9.192;2023-09-19T14:15:26;20.80;93.40
16732;DHT22;8484;50.904;9.192;2023-09-19T14:17:56;20.60;94.60
16732;DHT22;8484;50.904;9.192;2023-09-19T14:20:25;20.70;93.80
16732;DHT22;8484;50.904;9.192;2023-09-19T14:22:53;20.60;94.10
16732;DHT22;8484;50.904;9.192;2023-09-19T14:25:20;20.70;93.10
16732;DHT22;8484;50.904;9.192;2023-09-19T14:27:48;20.50;94.30
16732;DHT22;8484;50.904;9.192;2023-09-19T14:30:15;20.40;92.70
16732;DHT22;8484;50.904;9.192;2023-09-19T14:32:43;20.20;92.70
16732;DHT22;8484;50.904;9.192;2023-09-19T14:35:10;20.20;92.80
16732;DHT22;8484;50.904;9.192;2023-09-19T14:37:40;20.60;93.40
16732;DHT22;8484;50.904;9.192;2023-09-19T14:40:08;21.00;93.20
16732;DHT22;8484;50.904;9.192;2023-09-19T14:42:38;20.60;92.50
16732;DHT22;8484;50.904;9.192;2023-09-19T14:45:06;20.30;93.20
16732;DHT22;8484;50.904;9.192;2023-09-19T14:47:33;19.90;92.80
16732;DHT22;8484;50.904;9.192;2023-09-19T14:50:02;20.20;93.70
16732;DHT22;8484;50.904;9.192;2023-09-19T14:52:32;20.30;93.40
16732;DHT22;8484;50.904;9.192;2023-09-19T14:54:59;20.30;93.60
16732;DHT22;8484;50.904;9.192;2023-09-19T14:57:27;20.10;93.50
16732;DHT22;8484;50.904;9.192;2023-09-19T14:59:55;20.20;93.80
16732;DHT22;8484;50.904;9.192;2023-09-19T15:02:22;20.20;93.50
16732;DHT22;8484;50.904;9.192;2023-09-19T15:04:48;20.10;93.40
16732;DHT22;8484;50.904;9.192;2023-09-19T15:07:17;20.00;93.20
16732;DHT22;8484;50.904;9.192;2023-09-19T15:09:45;19.90;93.40
16732;DHT22;8484;50.904;9.192;2023-09-19T15:12:12;19.70;93.80
16732;DHT22;8484;50.904;9.192;2023-09-19T15:14:40;19.70;93.90
16732;DHT22;8484;50.904;9.192;2023-09-19T15:17:09;19.60;94.80
16732;DHT22;8484;50.904;9.192;2023-09-19T15:19:35;19.60;94.40
16732;DHT22;8484;50.904;9.192;2023-09-19T15:22:04;19.50;94.80
16732;DHT22;8484;50.904;9.192;2023-09-19T15:24:32;19.30;94.80
16732;DHT22;8484;50.904;9.192;2023-09-19T15:27:00;19.40;94.80
16732;DHT22;8484;50.904;9.192;2023-09-19T15:29:28;19.30;94.90
16732;DHT22;8484;50.904;9.192;2023-09-19T15:31:55;19.30;95.00
16732;DHT22;8484;50.904;9.192;2023-09-19T15:34:24;19.20;95.20
16732;DHT22;8484;50.904;9.192;2023-09-19T15:36:51;19.10;95.50
16732;DHT22;8484;50.904;9.192;2023-09-19T15:39:18;19.10;95.90
16732;DHT22;8484;50.904;9.192;2023-09-19T15:41:49;19.10;96.10
16732;DHT22;8484;50.904;9.192;2023-09-19T15:44:18;19.00;95.50
16732;DHT22;8484;50.904;9.192;2023-09-19T15:46:45;19.10;96.30
16732;DHT22;8484;50.904;9.192;2023-09-19T15:49:13;19.00;95.90
16732;DHT22;8484;50.904;9.192;2023-09-19T15:51:40;19.00;96.40
16732;DHT22;8484;50.904;9.192;2023-09-19T15:54:10;19.00;95.70
16732;DHT22;8484;50.904;9.192;2023-09-19T15:56:38;18.90;96.20
16732;DHT22;8484;50.904;9.192;2023-09-19T15:59:08;19.10;96.00
16732;DHT22;8484;50.904;9.192;2023-09-19T16:01:36;18.90;96.30
16732;DHT22;8484;50.904;9.192;2023-09-19T16:04:04;18.80;96.20
16732;DHT22;8484;50.904;9.192;2023-09-19T16:06:34;18.80;96.50
16732;DHT22;8484;50.904;9.192;2023-09-19T16:09:02;18.80;96.90